createdAt,value
2023-01-12T00:01:40.513Z,1.90
2023-01-12T00:04:07.907Z,0.97
2023-01-12T00:06:34.820Z,1.20
2023-01-12T00:09:06.338Z,0.90
2023-01-12T00:11:33.496Z,1.30
2023-01-12T00:14:00.221Z,0.93
2023-01-12T00:16:39.538Z,1.10
2023-01-12T00:19:12.101Z,0.77
2023-01-12T00:21:50.458Z,1.00
2023-01-12T00:24:19.083Z,1.10
2023-01-12T00:26:46.903Z,1.20
2023-01-12T00:29:14.428Z,1.20
2023-01-12T00:31:41.297Z,1.10
2023-01-12T00:34:08.140Z,1.00
2023-01-12T00:36:34.992Z,1.03
2023-01-12T00:39:01.830Z,0.73
2023-01-12T00:41:46.875Z,0.90
2023-01-12T00:44:32.348Z,1.30
2023-01-12T00:46:58.988Z,1.07
2023-01-12T00:49:25.641Z,0.77
2023-01-12T00:51:52.305Z,1.10
2023-01-12T00:54:18.955Z,1.00
2023-01-12T00:56:45.635Z,0.90
2023-01-12T00:59:12.284Z,0.60
2023-01-12T01:01:39.084Z,1.00
2023-01-12T01:04:05.923Z,0.63
2023-01-12T01:06:32.598Z,1.10
2023-01-12T01:08:59.330Z,0.83
2023-01-12T01:11:26.000Z,0.90
2023-01-12T01:13:54.567Z,0.90
2023-01-12T01:16:21.293Z,1.00
2023-01-12T01:18:48.089Z,0.70
2023-01-12T01:21:14.908Z,1.10
2023-01-12T01:23:42.741Z,0.90
2023-01-12T01:26:18.121Z,0.90
2023-01-12T01:28:44.928Z,0.80
2023-01-12T01:31:25.555Z,0.70
2023-01-12T01:33:52.610Z,0.80
2023-01-12T01:36:19.798Z,0.80
2023-01-12T01:38:48.061Z,1.60
2023-01-12T01:41:24.122Z,0.70
2023-01-12T01:43:55.515Z,0.50
2023-01-12T01:46:42.167Z,1.07
2023-01-12T01:49:22.609Z,0.60
2023-01-12T01:51:51.568Z,0.70
2023-01-12T01:54:18.375Z,0.63
2023-01-12T01:56:45.767Z,0.83
2023-01-12T01:59:22.290Z,0.90
2023-01-12T02:01:49.224Z,0.90
2023-01-12T02:04:16.568Z,0.70
2023-01-12T02:06:43.906Z,0.70
2023-01-12T02:09:16.798Z,1.10
2023-01-12T02:12:02.780Z,1.20
2023-01-12T02:14:48.256Z,1.20
2023-01-12T02:17:30.189Z,0.70
2023-01-12T02:20:28.714Z,1.03
2023-01-12T02:22:58.349Z,0.60
2023-01-12T02:25:43.922Z,1.27
2023-01-12T02:28:19.501Z,0.70
2023-01-12T02:31:23.187Z,1.00
2023-01-12T02:34:01.409Z,0.83
2023-01-12T02:36:44.569Z,1.00
2023-01-12T02:39:18.255Z,1.17
2023-01-12T02:42:18.489Z,0.87
2023-01-12T02:44:56.867Z,0.90
2023-01-12T02:47:35.289Z,0.97
2023-01-12T02:50:07.074Z,1.10
2023-01-12T02:52:34.184Z,0.87
2023-01-12T02:55:03.590Z,0.90
2023-01-12T02:57:31.785Z,1.10
2023-01-12T03:00:01.480Z,0.83
2023-01-12T03:02:29.000Z,0.93
2023-01-12T03:04:55.666Z,1.10
2023-01-12T03:07:31.417Z,1.57
2023-01-12T03:10:10.888Z,1.33
2023-01-12T03:12:39.830Z,1.97
2023-01-12T03:15:09.603Z,0.87
2023-01-12T03:17:38.904Z,1.40
2023-01-12T03:20:25.880Z,1.10
2023-01-12T03:22:57.677Z,1.00
2023-01-12T03:25:26.521Z,0.83
2023-01-12T03:27:56.027Z,0.90
2023-01-12T03:30:45.927Z,0.80
2023-01-12T03:33:13.226Z,0.73
2023-01-12T03:35:49.154Z,0.83
2023-01-12T03:38:44.388Z,0.70
2023-01-12T03:41:20.226Z,1.33
2023-01-12T03:43:51.472Z,0.70
2023-01-12T03:46:30.479Z,0.97
2023-01-12T03:49:20.633Z,1.17
2023-01-12T03:51:49.323Z,0.97
2023-01-12T03:54:18.469Z,1.23
2023-01-12T03:56:46.760Z,1.00
2023-01-12T03:59:14.172Z,0.90
2023-01-12T04:01:41.938Z,0.93
2023-01-12T04:04:08.643Z,0.80
2023-01-12T04:06:35.310Z,1.03
2023-01-12T04:09:02.331Z,1.13
2023-01-12T04:11:47.488Z,0.80
2023-01-12T04:14:14.170Z,1.23
2023-01-12T04:16:40.862Z,1.23
2023-01-12T04:19:07.631Z,1.00
2023-01-12T04:21:53.125Z,1.03
2023-01-12T04:24:19.757Z,1.10
2023-01-12T04:26:46.865Z,0.80
2023-01-12T04:29:13.796Z,1.17
2023-01-12T04:31:40.498Z,1.10
2023-01-12T04:34:07.320Z,1.23
2023-01-12T04:36:34.053Z,1.20
2023-01-12T04:39:00.767Z,0.90
2023-01-12T04:41:27.468Z,1.00
2023-01-12T04:43:54.084Z,1.10
2023-01-12T04:46:20.757Z,1.10
2023-01-12T04:48:47.429Z,1.10
2023-01-12T04:51:14.224Z,1.00
2023-01-12T04:53:41.011Z,1.03
2023-01-12T04:56:08.700Z,1.00
2023-01-12T04:58:36.052Z,1.27
2023-01-12T05:01:15.298Z,1.17
2023-01-12T05:03:42.991Z,0.90
2023-01-12T05:06:10.282Z,0.80
2023-01-12T05:08:56.249Z,1.27
2023-01-12T05:11:30.442Z,0.73
2023-01-12T05:13:57.832Z,0.97
2023-01-12T05:16:25.302Z,0.90
2023-01-12T05:18:53.270Z,1.30
2023-01-12T05:21:24.640Z,1.50
2023-01-12T05:23:52.829Z,0.70
2023-01-12T05:26:21.553Z,1.20
2023-01-12T05:28:51.619Z,1.13
2023-01-12T05:31:19.507Z,1.23
2023-01-12T05:33:46.556Z,1.60
2023-01-12T05:36:15.038Z,1.37
2023-01-12T05:38:42.067Z,1.37
2023-01-12T05:41:10.710Z,1.20
2023-01-12T05:43:52.715Z,1.00
2023-01-12T05:46:31.184Z,1.10
2023-01-12T05:48:58.374Z,0.60
2023-01-12T05:51:26.932Z,1.30
2023-01-12T05:53:57.746Z,1.50
2023-01-12T05:56:30.408Z,1.00
2023-01-12T05:58:59.784Z,1.10
2023-01-12T06:01:27.924Z,0.97
2023-01-12T06:03:59.092Z,1.33
2023-01-12T06:06:31.229Z,1.20
2023-01-12T06:08:59.184Z,1.00
2023-01-12T06:11:44.479Z,1.17
2023-01-12T06:14:11.177Z,0.90
2023-01-12T06:16:39.681Z,0.90
2023-01-12T06:19:06.793Z,1.17
2023-01-12T06:21:34.654Z,1.30
2023-01-12T06:24:01.501Z,1.20
2023-01-12T06:26:28.246Z,1.13
2023-01-12T06:28:55.347Z,1.43
2023-01-12T06:31:22.091Z,1.33
2023-01-12T06:33:48.830Z,1.20
2023-01-12T06:36:15.541Z,1.37
2023-01-12T06:38:43.322Z,1.50
2023-01-12T06:41:32.404Z,1.13
2023-01-12T06:43:59.952Z,1.47
2023-01-12T06:46:29.464Z,1.30
2023-01-12T06:49:00.053Z,1.20
2023-01-12T06:51:27.190Z,1.40
2023-01-12T06:53:56.343Z,1.30
2023-01-12T06:56:23.308Z,1.30
2023-01-12T06:58:52.789Z,1.33
2023-01-12T07:01:22.523Z,1.83
2023-01-12T07:03:49.320Z,1.30
2023-01-12T07:06:16.579Z,1.17
2023-01-12T07:08:45.691Z,1.27
2023-01-12T07:11:14.779Z,1.07
2023-01-12T07:13:41.802Z,1.10
2023-01-12T07:16:08.710Z,1.07
2023-01-12T07:18:35.442Z,1.13
2023-01-12T07:21:06.590Z,1.10
2023-01-12T07:23:33.491Z,1.50
2023-01-12T07:26:15.443Z,0.83
2023-01-12T07:28:42.756Z,1.10
2023-01-12T07:31:09.796Z,1.80
2023-01-12T07:33:38.290Z,2.10
2023-01-12T07:36:06.433Z,1.90
2023-01-12T07:38:43.475Z,1.37
2023-01-12T07:41:30.235Z,1.13
2023-01-12T07:44:00.172Z,1.00
2023-01-12T07:46:29.142Z,0.80
2023-01-12T07:48:56.220Z,1.03
2023-01-12T07:51:22.911Z,1.30
2023-01-12T07:53:49.567Z,1.00
2023-01-12T07:56:19.202Z,1.30
2023-01-12T07:58:49.908Z,0.93
2023-01-12T08:01:17.089Z,0.80
2023-01-12T08:03:43.891Z,0.77
2023-01-12T08:06:10.981Z,1.43
2023-01-12T08:08:37.787Z,1.10
2023-01-12T08:11:07.268Z,1.43
2023-01-12T08:13:35.081Z,0.73
2023-01-12T08:16:15.515Z,1.37
2023-01-12T08:18:49.129Z,1.00
2023-01-12T08:21:20.770Z,0.90
2023-01-12T08:23:54.827Z,0.60
2023-01-12T08:26:27.171Z,1.10
2023-01-12T08:29:17.996Z,1.00
2023-01-12T08:31:44.838Z,0.87
2023-01-12T08:34:11.715Z,0.90
2023-01-12T08:36:44.421Z,1.17
2023-01-12T08:39:11.561Z,0.70
2023-01-12T08:41:40.491Z,0.80
2023-01-12T08:44:10.736Z,0.90
2023-01-12T08:46:48.821Z,1.10
2023-01-12T08:49:17.452Z,0.70
2023-01-12T08:51:44.740Z,1.17
2023-01-12T08:54:14.242Z,0.93
2023-01-12T08:56:41.295Z,0.90
2023-01-12T08:59:08.279Z,0.73
2023-01-12T09:01:35.673Z,0.77
2023-01-12T09:04:02.552Z,1.10
2023-01-12T09:06:31.904Z,0.73
2023-01-12T09:09:06.645Z,1.20
2023-01-12T09:11:33.339Z,1.27
2023-01-12T09:14:00.047Z,1.00
2023-01-12T09:16:28.201Z,1.07
2023-01-12T09:18:55.253Z,1.17
2023-01-12T09:21:23.770Z,0.83
2023-01-12T09:23:50.888Z,0.50
2023-01-12T09:26:20.234Z,0.67
2023-01-12T09:28:47.478Z,1.20
2023-01-12T09:31:18.773Z,0.93
2023-01-12T09:33:46.923Z,0.70
2023-01-12T09:36:25.404Z,0.93
2023-01-12T09:38:52.777Z,0.60
2023-01-12T09:41:44.021Z,0.97
2023-01-12T09:44:54.481Z,0.87
2023-01-12T09:47:41.720Z,1.13
2023-01-12T09:50:22.355Z,0.90
2023-01-12T09:52:57.913Z,0.70
2023-01-12T09:55:51.723Z,1.10
2023-01-12T09:58:30.474Z,0.73
2023-01-12T10:00:59.387Z,0.90
2023-01-12T10:03:30.387Z,0.87
2023-01-12T10:06:00.719Z,0.77
2023-01-12T10:08:45.303Z,0.90
2023-01-12T10:11:14.995Z,0.70
2023-01-12T10:14:12.532Z,0.80
2023-01-12T10:16:52.013Z,1.43
2023-01-12T10:19:24.457Z,0.90
2023-01-12T10:21:53.501Z,0.80
2023-01-12T10:24:25.320Z,0.87
2023-01-12T10:27:01.074Z,1.20
2023-01-12T10:29:29.144Z,1.10
2023-01-12T10:31:55.898Z,1.17
2023-01-12T10:34:24.832Z,0.80
2023-01-12T10:36:58.766Z,1.10
2023-01-12T10:39:33.027Z,0.73
2023-01-12T10:42:37.798Z,0.80
2023-01-12T10:45:22.102Z,0.87
2023-01-12T10:47:52.971Z,0.67
2023-01-12T10:50:31.378Z,0.80
2023-01-12T10:53:06.132Z,0.80
2023-01-12T10:55:39.847Z,0.77
2023-01-12T10:58:22.530Z,0.70
2023-01-12T11:00:52.168Z,0.80
2023-01-12T11:03:31.945Z,1.00
2023-01-12T11:06:16.448Z,0.90
2023-01-12T11:08:43.588Z,1.00
2023-01-12T11:11:31.352Z,0.90
2023-01-12T11:14:03.319Z,0.60
2023-01-12T11:16:47.491Z,0.83
2023-01-12T11:19:26.254Z,0.60
2023-01-12T11:22:07.094Z,0.97
2023-01-12T11:24:57.735Z,0.63
2023-01-12T11:27:38.565Z,0.83
2023-01-12T11:30:16.144Z,0.63
2023-01-12T11:33:40.985Z,0.70
2023-01-12T11:36:16.969Z,0.70
2023-01-12T11:38:49.251Z,0.47
2023-01-12T11:41:25.338Z,0.50
2023-01-12T11:44:02.887Z,1.03
2023-01-12T11:46:56.093Z,0.50
2023-01-12T11:49:44.643Z,0.50
2023-01-12T11:52:14.353Z,0.60
2023-01-12T11:54:41.182Z,0.60
2023-01-12T11:57:55.917Z,0.70
2023-01-12T12:00:31.357Z,0.47
2023-01-12T12:03:39.106Z,0.60
2023-01-12T12:06:17.581Z,0.60
2023-01-12T12:08:49.990Z,0.20
2023-01-12T12:11:25.886Z,0.40
2023-01-12T12:13:58.262Z,0.40
2023-01-12T12:16:30.007Z,0.50
2023-01-12T12:19:20.966Z,0.43
2023-01-12T12:22:18.129Z,0.43
2023-01-12T12:25:13.425Z,0.50
2023-01-12T12:27:54.721Z,0.47
2023-01-12T12:30:39.203Z,0.60
2023-01-12T12:33:32.089Z,0.40
2023-01-12T12:36:26.196Z,0.30
2023-01-12T12:39:20.206Z,0.30
2023-01-12T12:42:30.640Z,0.60
2023-01-12T12:45:18.394Z,0.40
2023-01-12T12:48:00.304Z,0.40
2023-01-12T12:50:45.567Z,0.37
2023-01-12T12:53:43.437Z,0.40
2023-01-12T12:56:19.164Z,0.40
2023-01-12T12:58:52.612Z,0.70
2023-01-12T13:01:25.322Z,0.50
2023-01-12T13:03:56.026Z,0.70
2023-01-12T13:06:37.074Z,0.73
2023-01-12T13:09:12.355Z,0.43
2023-01-12T13:11:54.408Z,0.50
2023-01-12T13:14:42.581Z,0.40
2023-01-12T13:17:21.488Z,0.50
2023-01-12T13:19:49.367Z,0.70
2023-01-12T13:22:48.695Z,0.50
2023-01-12T13:25:22.303Z,0.40
2023-01-12T13:28:01.255Z,0.47
2023-01-12T13:30:31.136Z,0.70
2023-01-12T13:33:16.040Z,0.40
2023-01-12T13:35:47.571Z,0.50
2023-01-12T13:38:33.247Z,0.60
2023-01-12T13:41:15.125Z,0.60
2023-01-12T13:43:49.740Z,0.53
2023-01-12T13:46:20.210Z,0.30
2023-01-12T13:48:51.380Z,0.20
2023-01-12T13:51:40.735Z,0.40
2023-01-12T13:54:12.784Z,0.30
2023-01-12T13:56:40.892Z,0.43
2023-01-12T13:59:16.844Z,0.37
2023-01-12T14:01:51.068Z,0.50
2023-01-12T14:04:19.969Z,0.20
2023-01-12T14:07:08.136Z,0.60
2023-01-12T14:09:51.667Z,0.40
2023-01-12T14:12:53.463Z,0.40
2023-01-12T14:15:54.690Z,0.60
2023-01-12T14:18:27.061Z,0.50
2023-01-12T14:20:54.826Z,0.40
2023-01-12T14:23:26.420Z,0.40
2023-01-12T14:26:14.223Z,0.60
2023-01-12T14:28:42.792Z,0.20
2023-01-12T14:31:27.473Z,0.30
2023-01-12T14:33:57.143Z,1.17
2023-01-12T14:36:41.127Z,0.40
2023-01-12T14:39:14.635Z,0.83
2023-01-12T14:42:12.225Z,1.80
2023-01-12T14:45:09.526Z,1.50
2023-01-12T14:47:36.756Z,0.83
2023-01-12T14:50:12.561Z,0.60
2023-01-12T14:52:44.479Z,0.50
2023-01-12T14:55:19.201Z,0.40
2023-01-12T14:57:52.099Z,0.43
2023-01-12T15:00:31.715Z,0.50
2023-01-12T15:03:01.001Z,0.33
2023-01-12T15:05:32.731Z,0.30
2023-01-12T15:08:04.637Z,0.70
2023-01-12T15:10:41.744Z,0.70
2023-01-12T15:13:29.818Z,0.60
2023-01-12T15:16:15.693Z,0.33
2023-01-12T15:19:01.086Z,0.70
2023-01-12T15:21:47.240Z,0.63
2023-01-12T15:24:44.804Z,0.50
2023-01-12T15:27:13.841Z,0.60
2023-01-12T15:29:40.676Z,0.50
2023-01-12T15:32:29.649Z,0.57
2023-01-12T15:35:00.683Z,0.70
2023-01-12T15:37:27.781Z,0.40
2023-01-12T15:39:56.577Z,0.60
2023-01-12T15:42:24.602Z,0.70
2023-01-12T15:44:53.827Z,0.63
2023-01-12T15:47:21.532Z,0.90
2023-01-12T15:49:51.141Z,0.73
2023-01-12T15:52:24.019Z,0.60
2023-01-12T15:54:51.542Z,0.43
2023-01-12T15:57:18.856Z,0.70
2023-01-12T15:59:45.638Z,0.33
2023-01-12T16:02:22.019Z,0.60
2023-01-12T16:04:48.856Z,0.43
2023-01-12T16:07:15.591Z,0.50
2023-01-12T16:09:45.538Z,0.50
2023-01-12T16:12:12.384Z,0.50
2023-01-12T16:14:39.138Z,0.67
2023-01-12T16:17:05.825Z,0.90
2023-01-12T16:19:33.740Z,0.70
2023-01-12T16:22:00.493Z,0.90
2023-01-12T16:24:30.872Z,0.50
2023-01-12T16:26:57.677Z,0.60
2023-01-12T16:29:24.481Z,0.70
2023-01-12T16:31:54.166Z,0.50
2023-01-12T16:34:23.482Z,0.60
2023-01-12T16:36:50.546Z,0.80
2023-01-12T16:39:17.346Z,1.73
2023-01-12T16:41:45.297Z,1.80
2023-01-12T16:44:12.209Z,1.87
2023-01-12T16:46:38.902Z,1.50
2023-01-12T16:49:05.851Z,1.20
2023-01-12T16:51:35.537Z,1.20
2023-01-12T16:54:04.753Z,1.63
2023-01-12T16:56:31.683Z,1.17
2023-01-12T16:58:58.387Z,1.40
2023-01-12T17:01:26.082Z,1.40
2023-01-12T17:03:57.621Z,1.37
2023-01-12T17:06:26.253Z,1.30
2023-01-12T17:08:53.398Z,1.03
2023-01-12T17:11:20.959Z,0.60
2023-01-12T17:13:54.200Z,0.70
2023-01-12T17:16:22.460Z,0.80
2023-01-12T17:18:51.020Z,0.90
2023-01-12T17:21:18.746Z,0.97
2023-01-12T17:23:47.029Z,0.80
2023-01-12T17:26:19.154Z,1.10
2023-01-12T17:28:46.694Z,0.90
2023-01-12T17:31:17.320Z,1.20
2023-01-12T17:33:44.681Z,0.83
2023-01-12T17:36:12.846Z,1.20
2023-01-12T17:38:40.105Z,0.90
2023-01-12T17:41:09.009Z,1.00
2023-01-12T17:43:37.335Z,1.80
2023-01-12T17:46:04.482Z,0.90
2023-01-12T17:48:31.289Z,1.40
2023-01-12T17:50:58.182Z,1.10
2023-01-12T17:53:24.941Z,1.07
2023-01-12T17:55:53.199Z,1.30
2023-01-12T17:58:23.141Z,1.10
2023-01-12T18:00:49.840Z,0.90
2023-01-12T18:03:16.682Z,1.37
2023-01-12T18:05:47.011Z,1.30
2023-01-12T18:08:13.997Z,1.30
2023-01-12T18:10:40.841Z,1.07
2023-01-12T18:13:07.763Z,0.70
2023-01-12T18:15:34.551Z,0.90
2023-01-12T18:18:01.327Z,1.00
2023-01-12T18:20:28.109Z,1.37
2023-01-12T18:22:55.294Z,1.47
2023-01-12T18:25:22.118Z,2.00
2023-01-12T18:27:48.997Z,1.50
2023-01-12T18:30:16.036Z,2.20
2023-01-12T18:32:42.833Z,2.00
2023-01-12T18:35:10.211Z,1.30
2023-01-12T18:37:37.110Z,1.20
2023-01-12T18:40:04.211Z,1.00
2023-01-12T18:42:49.497Z,1.10
2023-01-12T18:45:20.882Z,1.37
2023-01-12T18:48:06.227Z,1.93
2023-01-12T18:50:51.397Z,1.10
2023-01-12T18:53:30.038Z,0.90
2023-01-12T18:55:58.056Z,0.80
2023-01-12T18:58:29.223Z,1.00
2023-01-12T19:01:02.811Z,1.10
2023-01-12T19:03:29.676Z,1.00
2023-01-12T19:06:21.972Z,1.60
2023-01-12T19:09:10.704Z,1.50
2023-01-12T19:11:38.420Z,1.67
2023-01-12T19:14:24.475Z,1.50
2023-01-12T19:17:09.983Z,1.07
2023-01-12T19:19:37.120Z,1.30
2023-01-12T19:22:23.060Z,1.67
2023-01-12T19:25:08.668Z,1.77
2023-01-12T19:27:54.019Z,1.80
2023-01-12T19:30:21.184Z,1.20
2023-01-12T19:32:48.033Z,1.20
2023-01-12T19:35:14.916Z,1.13
2023-01-12T19:37:47.285Z,1.37
2023-01-12T19:40:26.491Z,1.00
2023-01-12T19:43:18.721Z,0.80
2023-01-12T19:45:48.846Z,1.20
2023-01-12T19:48:17.315Z,0.80
2023-01-12T19:50:44.914Z,1.13
2023-01-12T19:53:18.827Z,1.00
2023-01-12T19:55:46.357Z,0.50
2023-01-12T19:58:13.630Z,0.80
2023-01-12T20:00:46.318Z,0.73
2023-01-12T20:03:18.700Z,0.80
2023-01-12T20:05:47.576Z,0.90
2023-01-12T20:08:15.089Z,0.83
2023-01-12T20:10:42.093Z,1.00
2023-01-12T20:13:11.981Z,1.10
2023-01-12T20:15:40.499Z,0.67
2023-01-12T20:18:08.811Z,0.90
2023-01-12T20:20:36.190Z,0.90
2023-01-12T20:23:03.174Z,0.90
2023-01-12T20:25:30.060Z,0.73
2023-01-12T20:27:57.740Z,0.60
2023-01-12T20:30:37.386Z,0.70
2023-01-12T20:33:06.043Z,0.73
2023-01-12T20:35:33.235Z,1.10
2023-01-12T20:38:01.970Z,0.50
2023-01-12T20:40:28.773Z,0.70
2023-01-12T20:42:55.570Z,0.90
2023-01-12T20:45:22.399Z,0.80
2023-01-12T20:47:49.220Z,0.77
2023-01-12T20:50:17.930Z,0.50
2023-01-12T20:52:48.011Z,0.60
2023-01-12T20:55:15.391Z,0.77
2023-01-12T20:57:42.258Z,1.03
2023-01-12T21:00:10.488Z,0.70
2023-01-12T21:02:37.852Z,0.73
2023-01-12T21:05:05.303Z,0.63
2023-01-12T21:07:32.133Z,0.77
2023-01-12T21:09:59.492Z,0.70
2023-01-12T21:12:27.600Z,0.80
2023-01-12T21:14:54.823Z,0.50
2023-01-12T21:17:21.851Z,0.80
2023-01-12T21:19:48.539Z,0.70
2023-01-12T21:22:17.671Z,0.57
2023-01-12T21:24:44.572Z,0.53
2023-01-12T21:27:11.544Z,0.60
2023-01-12T21:29:38.302Z,0.90
2023-01-12T21:32:05.411Z,0.50
2023-01-12T21:34:32.213Z,0.90
2023-01-12T21:36:58.893Z,0.97
2023-01-12T21:39:25.636Z,0.60
2023-01-12T21:42:14.231Z,0.70
2023-01-12T21:44:41.068Z,0.60
2023-01-12T21:47:07.830Z,0.53
2023-01-12T21:49:34.579Z,0.40
2023-01-12T21:52:01.398Z,0.70
2023-01-12T21:54:28.197Z,0.60
2023-01-12T21:56:55.100Z,0.50
2023-01-12T21:59:21.814Z,0.40
2023-01-12T22:01:48.643Z,0.60
2023-01-12T22:04:15.367Z,2.17
2023-01-12T22:06:42.157Z,1.40
2023-01-12T22:09:09.200Z,0.70
2023-01-12T22:11:35.909Z,0.40
2023-01-12T22:14:02.691Z,0.50
2023-01-12T22:16:29.680Z,0.70
2023-01-12T22:18:56.429Z,0.50
2023-01-12T22:21:23.180Z,0.50
2023-01-12T22:23:50.094Z,0.50
2023-01-12T22:26:17.876Z,0.70
2023-01-12T22:28:47.584Z,0.63
2023-01-12T22:31:19.204Z,0.70
2023-01-12T22:33:58.586Z,0.73
2023-01-12T22:36:25.566Z,0.73
2023-01-12T22:38:52.580Z,0.77
2023-01-12T22:41:21.709Z,0.60
2023-01-12T22:43:49.189Z,0.87
2023-01-12T22:46:22.803Z,0.60
2023-01-12T22:48:57.847Z,0.70
2023-01-12T22:51:26.069Z,0.50
2023-01-12T22:53:54.357Z,0.60
2023-01-12T22:56:21.155Z,0.70
2023-01-12T22:58:49.448Z,0.53
2023-01-12T23:01:17.299Z,0.50
2023-01-12T23:03:44.493Z,0.57
2023-01-12T23:06:13.229Z,0.50
2023-01-12T23:08:41.486Z,0.47
2023-01-12T23:11:15.108Z,0.50
2023-01-12T23:13:43.971Z,0.43
2023-01-12T23:16:12.646Z,0.57
2023-01-12T23:18:44.387Z,0.50
2023-01-12T23:21:20.270Z,0.80
2023-01-12T23:23:49.390Z,0.60
2023-01-12T23:26:22.539Z,0.27
2023-01-12T23:28:51.293Z,0.70
2023-01-12T23:31:21.177Z,0.60
2023-01-12T23:33:52.011Z,0.70
2023-01-12T23:36:23.962Z,0.40
2023-01-12T23:38:54.942Z,0.50
2023-01-12T23:41:24.491Z,0.30
2023-01-12T23:43:52.230Z,0.33
2023-01-12T23:46:23.273Z,0.60
2023-01-12T23:48:51.200Z,0.50
2023-01-12T23:51:18.178Z,0.60
2023-01-12T23:53:48.630Z,0.40
2023-01-12T23:56:16.387Z,0.50
2023-01-12T23:58:44.117Z,0.40
